Time;durP1;ratioP1;P1;durP2;ratioP2;P2;SDS_P1;SDS_P2;PMS_P1;PMS_P2;Temp;Humidity;BMP_temperature;BMP_pressure;BME280_temperature;BME280_humidity;BME280_pressure;Samples;Min_cycle;Max_cycle;Signal;HPM_P1;HPM_P2
2021/10/08 00:01:34;;;;;;;27.73;12.88;;;;;;;;;;5027240;28;20040;-54
2021/10/08 00:04:03;;;;;;;27.15;13.77;;;;;;;;;;5025380;28;20030;-52
2021/10/08 00:06:28;;;;;;;29.52;14.60;;;;;;;;;;5012510;28;20064;-53
2021/10/08 00:08:53;;;;;;;31.02;14.27;;;;;;;;;;5007882;28;20065;-53
2021/10/08 00:11:18;;;;;;;29.67;14.40;;;;;;;;;;5026701;28;20077;-52
2021/10/08 00:13:44;;;;;;;29.05;15.15;;;;;;;;;;5007164;28;20037;-53
2021/10/08 00:16:09;;;;;;;32.20;15.00;;;;;;;;;;5012509;28;20096;-53
2021/10/08 00:18:35;;;;;;;40.55;16.15;;;;;;;;;;5007093;28;20092;-53
2021/10/08 00:21:00;;;;;;;40.47;17.30;;;;;;;;;;5006863;28;20088;-52
2021/10/08 00:23:26;;;;;;;34.78;16.13;;;;;;;;;;5016499;28;20033;-56
2021/10/08 00:25:51;;;;;;;32.28;15.85;;;;;;;;;;5019568;28;20448;-54
2021/10/08 00:28:16;;;;;;;26.27;14.35;;;;;;;;;;5023686;28;20022;-52
2021/10/08 00:30:41;;;;;;;29.17;14.40;;;;;;;;;;5012067;28;20038;-53
2021/10/08 00:33:06;;;;;;;29.58;14.48;;;;;;;;;;5015231;28;20029;-54
2021/10/08 00:35:32;;;;;;;28.88;14.63;;;;;;;;;;5019175;28;20103;-54
2021/10/08 00:37:57;;;;;;;28.65;15.48;;;;;;;;;;5017467;28;20036;-53
2021/10/08 00:40:22;;;;;;;26.70;14.60;;;;;;;;;;5018501;28;20032;-54
2021/10/08 00:42:48;;;;;;;32.40;15.15;;;;;;;;;;5011032;28;20801;-53
2021/10/08 00:45:13;;;;;;;26.83;14.38;;;;;;;;;;5012558;28;20475;-52
2021/10/08 00:47:38;;;;;;;30.25;14.68;;;;;;;;;;5008360;28;20108;-52
2021/10/08 00:50:05;;;;;;;28.27;13.38;;;;;;;;;;5017718;28;20033;-52
2021/10/08 00:52:30;;;;;;;27.58;13.93;;;;;;;;;;5019453;28;20026;-53
2021/10/08 00:54:55;;;;;;;27.02;14.02;;;;;;;;;;5008381;28;20021;-53
2021/10/08 00:57:20;;;;;;;31.92;15.43;;;;;;;;;;5009139;28;20037;-53
2021/10/08 00:59:45;;;;;;;42.53;17.50;;;;;;;;;;5014426;28;20037;-54
2021/10/08 01:02:11;;;;;;;36.05;16.13;;;;;;;;;;5016547;28;20091;-54
2021/10/08 01:04:36;;;;;;;40.65;15.20;;;;;;;;;;5006739;28;20022;-53
2021/10/08 01:07:01;;;;;;;35.67;15.93;;;;;;;;;;5007249;28;20038;-54
2021/10/08 01:09:26;;;;;;;37.80;15.15;;;;;;;;;;5014977;28;20112;-54
2021/10/08 01:11:52;;;;;;;35.28;14.90;;;;;;;;;;5015715;28;20058;-54
2021/10/08 01:14:19;;;;;;;29.40;14.90;;;;;;;;;;5012488;28;20574;-53
2021/10/08 01:16:44;;;;;;;28.42;13.75;;;;;;;;;;5011593;28;20034;-55
2021/10/08 01:19:10;;;;;;;31.17;15.50;;;;;;;;;;5020134;28;20585;-54
2021/10/08 01:21:35;;;;;;;45.67;18.15;;;;;;;;;;5007553;28;20034;-55
2021/10/08 01:24:00;;;;;;;41.83;17.90;;;;;;;;;;5011448;28;20662;-53
2021/10/08 01:26:26;;;;;;;41.88;16.73;;;;;;;;;;5006133;28;20484;-53
2021/10/08 01:28:51;;;;;;;43.50;16.98;;;;;;;;;;5015612;28;20536;-53
2021/10/08 01:31:16;;;;;;;31.90;15.40;;;;;;;;;;5014001;28;20492;-54
2021/10/08 01:33:41;;;;;;;37.17;15.55;;;;;;;;;;5012749;28;20038;-54
2021/10/08 01:36:07;;;;;;;31.45;16.58;;;;;;;;;;5013223;28;20120;-55
2021/10/08 01:38:32;;;;;;;31.50;15.07;;;;;;;;;;5007176;28;20041;-55
2021/10/08 01:40:57;;;;;;;28.25;14.70;;;;;;;;;;5009439;28;20128;-55
2021/10/08 01:43:22;;;;;;;28.38;13.77;;;;;;;;;;5026755;28;20285;-55
2021/10/08 01:45:47;;;;;;;38.35;16.23;;;;;;;;;;5007225;28;20034;-55
2021/10/08 01:48:13;;;;;;;46.00;17.33;;;;;;;;;;5006017;28;20022;-54
2021/10/08 01:50:38;;;;;;;38.85;16.20;;;;;;;;;;5009555;28;20113;-55
2021/10/08 01:53:03;;;;;;;34.88;16.05;;;;;;;;;;5019893;28;20551;-54
2021/10/08 01:55:28;;;;;;;34.80;16.83;;;;;;;;;;5011050;28;20038;-55
2021/10/08 01:57:55;;;;;;;31.20;16.05;;;;;;;;;;5015920;28;20117;-54
2021/10/08 02:00:20;;;;;;;31.38;14.80;;;;;;;;;;5006068;28;20049;-52
2021/10/08 02:02:45;;;;;;;34.00;15.48;;;;;;;;;;5005752;28;20034;-52
2021/10/08 02:05:11;;;;;;;35.42;15.85;;;;;;;;;;5026456;28;20057;-56
2021/10/08 02:07:36;;;;;;;34.60;15.52;;;;;;;;;;5012949;28;20069;-55
2021/10/08 02:10:01;;;;;;;38.28;16.80;;;;;;;;;;5011338;28;20155;-55
2021/10/08 02:12:26;;;;;;;39.25;16.42;;;;;;;;;;5017098;28;20087;-55
2021/10/08 02:14:52;;;;;;;34.60;15.23;;;;;;;;;;5015905;28;20032;-55
2021/10/08 02:17:17;;;;;;;23.75;13.70;;;;;;;;;;5011596;28;20045;-55
2021/10/08 02:19:42;;;;;;;28.10;13.15;;;;;;;;;;5008994;28;20033;-56
2021/10/08 02:22:07;;;;;;;26.08;13.40;;;;;;;;;;5022498;28;20029;-55
2021/10/08 02:24:33;;;;;;;23.60;13.23;;;;;;;;;;5016020;28;20037;-55
2021/10/08 02:26:58;;;;;;;24.02;13.15;;;;;;;;;;5011253;28;20044;-55
2021/10/08 02:29:24;;;;;;;33.33;13.45;;;;;;;;;;5006156;28;20049;-55
2021/10/08 02:31:49;;;;;;;30.90;14.55;;;;;;;;;;5011194;28;20045;-52
2021/10/08 02:34:14;;;;;;;32.72;15.93;;;;;;;;;;5006670;28;20037;-52
2021/10/08 02:36:39;;;;;;;29.95;14.40;;;;;;;;;;5014780;28;20543;-52
2021/10/08 02:39:05;;;;;;;40.30;15.65;;;;;;;;;;5015963;28;20038;-52
2021/10/08 02:41:30;;;;;;;38.90;17.30;;;;;;;;;;5009515;28;20439;-55
2021/10/08 02:43:55;;;;;;;37.45;16.88;;;;;;;;;;5020266;28;20037;-55
2021/10/08 02:46:20;;;;;;;39.90;17.50;;;;;;;;;;5016320;28;20239;-55
2021/10/08 02:48:45;;;;;;;56.03;20.40;;;;;;;;;;5018440;28;20793;-55
2021/10/08 02:51:11;;;;;;;45.20;18.30;;;;;;;;;;5015399;28;20464;-53
2021/10/08 02:53:36;;;;;;;35.00;16.70;;;;;;;;;;5022654;28;20037;-54
2021/10/08 02:56:03;;;;;;;32.42;14.88;;;;;;;;;;5026118;28;20143;-56
2021/10/08 02:58:28;;;;;;;28.65;15.02;;;;;;;;;;5015410;28;20088;-56
2021/10/08 03:00:53;;;;;;;28.45;14.32;;;;;;;;;;5012530;28;20042;-53
2021/10/08 03:03:19;;;;;;;32.53;14.25;;;;;;;;;;5015457;28;20125;-56
2021/10/08 03:05:44;;;;;;;26.70;13.25;;;;;;;;;;5012290;28;20040;-55
2021/10/08 03:08:09;;;;;;;27.23;13.13;;;;;;;;;;5013031;28;20113;-55
2021/10/08 03:10:35;;;;;;;27.55;13.68;;;;;;;;;;5008044;28;21459;-55
2021/10/08 03:13:00;;;;;;;31.65;14.95;;;;;;;;;;5014374;28;20045;-55
2021/10/08 03:15:25;;;;;;;34.22;14.32;;;;;;;;;;5008260;28;20379;-56
2021/10/08 03:17:50;;;;;;;30.45;14.55;;;;;;;;;;5014362;28;20745;-54
2021/10/08 03:20:16;;;;;;;27.33;14.30;;;;;;;;;;5018957;28;20550;-54
2021/10/08 03:22:41;;;;;;;31.20;14.48;;;;;;;;;;5020107;28;20475;-55
2021/10/08 03:25:08;;;;;;;36.20;15.13;;;;;;;;;;5022527;28;20029;-53
2021/10/08 03:27:34;;;;;;;38.45;15.88;;;;;;;;;;5018342;28;20081;-55
2021/10/08 03:29:59;;;;;;;49.88;16.92;;;;;;;;;;5008560;28;20488;-55
2021/10/08 03:32:24;;;;;;;47.85;18.65;;;;;;;;;;5017137;28;20743;-56
2021/10/08 03:34:49;;;;;;;43.13;17.30;;;;;;;;;;5014037;28;20552;-55
2021/10/08 03:37:17;;;;;;;38.67;15.25;;;;;;;;;;5017999;28;20072;-56
2021/10/08 03:39:46;;;;;;;41.35;15.95;;;;;;;;;;5014712;28;20037;-55
2021/10/08 03:42:15;;;;;;;28.60;14.70;;;;;;;;;;5016682;28;20045;-55
2021/10/08 03:44:40;;;;;;;28.67;15.57;;;;;;;;;;5015039;28;20441;-56
2021/10/08 03:47:19;;;;;;;30.60;14.85;;;;;;;;;;5011120;28;20463;-55
2021/10/08 03:49:44;;;;;;;36.97;16.88;;;;;;;;;;5006615;28;20033;-56
2021/10/08 03:52:09;;;;;;;31.17;14.75;;;;;;;;;;5016488;28;20041;-54
2021/10/08 03:54:35;;;;;;;28.65;14.25;;;;;;;;;;5011850;28;20139;-56
2021/10/08 03:57:00;;;;;;;29.85;13.38;;;;;;;;;;5007087;28;20120;-55
2021/10/08 03:59:25;;;;;;;36.17;13.70;;;;;;;;;;5007804;28;20061;-55
2021/10/08 04:01:50;;;;;;;31.80;14.65;;;;;;;;;;5012706;28;20633;-56
2021/10/08 04:04:16;;;;;;;66.43;20.55;;;;;;;;;;5012781;28;20065;-53
2021/10/08 04:06:41;;;;;;;89.88;20.98;;;;;;;;;;5005661;28;20034;-54
2021/10/08 04:09:06;;;;;;;38.55;17.40;;;;;;;;;;5018227;28;20040;-54
2021/10/08 04:11:32;;;;;;;37.13;15.80;;;;;;;;;;5023875;28;20043;-56
2021/10/08 04:13:57;;;;;;;54.47;16.70;;;;;;;;;;5019625;28;20036;-54
2021/10/08 04:16:22;;;;;;;191.05;21.02;;;;;;;;;;5010610;28;20591;-56
2021/10/08 04:18:48;;;;;;;144.55;19.33;;;;;;;;;;5009982;28;20061;-55
2021/10/08 04:21:13;;;;;;;126.88;17.58;;;;;;;;;;5015067;28;20406;-56
2021/10/08 04:23:38;;;;;;;172.65;20.15;;;;;;;;;;5014233;28;20801;-55
2021/10/08 04:26:03;;;;;;;139.73;20.58;;;;;;;;;;5010797;28;20076;-55
2021/10/08 04:28:29;;;;;;;83.60;18.70;;;;;;;;;;5016227;28;20029;-54
2021/10/08 04:30:54;;;;;;;94.28;18.35;;;;;;;;;;5007088;28;20042;-55
2021/10/08 04:33:20;;;;;;;128.05;17.83;;;;;;;;;;5004498;28;20026;-54
2021/10/08 04:35:46;;;;;;;73.72;16.75;;;;;;;;;;5010242;28;20676;-54
2021/10/08 04:38:11;;;;;;;87.43;17.58;;;;;;;;;;5019913;28;20147;-54
2021/10/08 04:40:36;;;;;;;66.22;16.95;;;;;;;;;;5010639;28;20652;-54
2021/10/08 04:43:01;;;;;;;73.65;17.70;;;;;;;;;;5012765;28;20635;-55
2021/10/08 04:45:27;;;;;;;116.50;17.23;;;;;;;;;;5013503;28;20067;-55
2021/10/08 04:47:52;;;;;;;72.55;15.18;;;;;;;;;;5019357;28;20056;-54
2021/10/08 04:50:17;;;;;;;92.28;13.27;;;;;;;;;;5014064;28;20025;-55
2021/10/08 04:52:43;;;;;;;60.13;14.23;;;;;;;;;;5011970;28;20493;-57
2021/10/08 04:55:08;;;;;;;79.38;14.25;;;;;;;;;;5028967;28;20036;-58
2021/10/08 04:57:33;;;;;;;73.40;15.43;;;;;;;;;;5005699;28;20032;-55
2021/10/08 04:59:58;;;;;;;74.28;14.40;;;;;;;;;;5018843;28;20026;-55
2021/10/08 05:02:24;;;;;;;69.43;15.10;;;;;;;;;;5009279;28;20128;-53
2021/10/08 05:04:49;;;;;;;82.88;14.32;;;;;;;;;;5005896;28;20046;-55
2021/10/08 05:07:14;;;;;;;79.05;15.15;;;;;;;;;;5014766;28;20038;-56
2021/10/08 05:09:42;;;;;;;79.65;14.27;;;;;;;;;;5011594;28;20041;-56
2021/10/08 05:12:07;;;;;;;59.67;14.45;;;;;;;;;;5015239;28;20459;-56
2021/10/08 05:14:32;;;;;;;57.97;14.85;;;;;;;;;;5007399;28;20026;-55
2021/10/08 05:16:57;;;;;;;35.22;14.23;;;;;;;;;;5003709;28;20064;-55
2021/10/08 05:19:24;;;;;;;81.88;14.95;;;;;;;;;;5019078;28;20899;-55
2021/10/08 05:21:50;;;;;;;71.57;14.27;;;;;;;;;;5015559;28;20080;-55
2021/10/08 05:24:15;;;;;;;91.85;14.30;;;;;;;;;;5015245;28;20372;-55
2021/10/08 05:26:41;;;;;;;51.03;12.73;;;;;;;;;;5010266;28;20781;-55
2021/10/08 05:29:06;;;;;;;40.92;11.38;;;;;;;;;;5020779;28;20057;-54
2021/10/08 05:31:33;;;;;;;45.30;11.32;;;;;;;;;;5015546;28;20038;-54
2021/10/08 05:33:58;;;;;;;71.57;11.55;;;;;;;;;;5018195;28;21685;-54
2021/10/08 05:36:23;;;;;;;69.70;11.55;;;;;;;;;;5007179;28;20041;-54
2021/10/08 05:38:48;;;;;;;52.13;11.05;;;;;;;;;;5004151;28;20037;-54
2021/10/08 05:41:14;;;;;;;42.60;10.45;;;;;;;;;;5017201;28;20060;-54
2021/10/08 05:43:39;;;;;;;65.20;11.25;;;;;;;;;;5008105;28;20314;-55
2021/10/08 05:46:04;;;;;;;42.92;11.38;;;;;;;;;;5012493;28;20042;-55
2021/10/08 05:48:29;;;;;;;55.72;12.40;;;;;;;;;;5016894;28;20117;-55
2021/10/08 05:50:54;;;;;;;34.05;11.43;;;;;;;;;;5014152;28;20180;-55
2021/10/08 05:53:20;;;;;;;34.08;9.95;;;;;;;;;;5012575;28;20030;-54
2021/10/08 05:55:45;;;;;;;36.63;10.45;;;;;;;;;;5012735;28;20038;-55
2021/10/08 05:58:10;;;;;;;48.83;10.85;;;;;;;;;;5030880;28;20101;-55
2021/10/08 06:00:37;;;;;;;57.13;11.60;;;;;;;;;;5014683;28;20034;-55
2021/10/08 06:03:02;;;;;;;94.60;12.40;;;;;;;;;;5010708;28;20037;-56
2021/10/08 06:05:28;;;;;;;138.05;10.95;;;;;;;;;;5014604;28;20033;-54
2021/10/08 06:07:53;;;;;;;49.15;9.57;;;;;;;;;;5010229;28;20025;-54
2021/10/08 06:10:18;;;;;;;66.25;10.35;;;;;;;;;;5010160;28;20031;-55
2021/10/08 06:12:44;;;;;;;43.13;10.63;;;;;;;;;;5013642;28;20092;-53
2021/10/08 06:15:09;;;;;;;44.90;10.93;;;;;;;;;;5016445;28;20052;-54
2021/10/08 06:17:34;;;;;;;71.47;11.25;;;;;;;;;;5014935;28;20152;-54
2021/10/08 06:19:59;;;;;;;61.30;10.68;;;;;;;;;;5018656;28;20180;-54
2021/10/08 06:22:24;;;;;;;51.42;10.38;;;;;;;;;;5026141;28;20574;-54
2021/10/08 06:24:50;;;;;;;62.38;11.40;;;;;;;;;;5018708;28;20113;-53
2021/10/08 06:27:15;;;;;;;63.65;11.65;;;;;;;;;;5015229;28;20037;-54
2021/10/08 06:29:40;;;;;;;119.13;12.18;;;;;;;;;;5010077;28;20059;-52
2021/10/08 06:32:07;;;;;;;68.00;11.38;;;;;;;;;;5018834;28;20426;-52
2021/10/08 06:34:32;;;;;;;96.10;12.65;;;;;;;;;;5019612;28;20162;-53
2021/10/08 06:36:57;;;;;;;77.70;11.27;;;;;;;;;;5015191;28;20180;-54
2021/10/08 06:39:23;;;;;;;100.03;10.27;;;;;;;;;;5020740;28;20467;-55
2021/10/08 06:41:48;;;;;;;76.15;9.93;;;;;;;;;;5020428;28;20595;-57
2021/10/08 06:44:13;;;;;;;90.90;11.07;;;;;;;;;;5019639;28;20078;-54
2021/10/08 06:46:38;;;;;;;74.53;10.50;;;;;;;;;;5018835;28;20038;-55
2021/10/08 06:49:03;;;;;;;51.47;10.68;;;;;;;;;;5010664;28;20038;-56
2021/10/08 06:51:29;;;;;;;67.75;9.82;;;;;;;;;;5019788;28;20044;-55
2021/10/08 06:53:54;;;;;;;55.97;9.77;;;;;;;;;;5014152;28;20033;-54
2021/10/08 06:56:19;;;;;;;38.58;10.30;;;;;;;;;;5013245;28;20049;-57
2021/10/08 06:58:44;;;;;;;91.80;9.98;;;;;;;;;;5009952;28;20355;-56
2021/10/08 07:01:10;;;;;;;76.03;9.95;;;;;;;;;;5009538;28;20117;-54
2021/10/08 07:03:35;;;;;;;67.60;11.23;;;;;;;;;;5009095;28;20018;-53
2021/10/08 07:06:00;;;;;;;68.55;9.45;;;;;;;;;;5013290;28;20475;-55
2021/10/08 07:08:25;;;;;;;60.65;9.95;;;;;;;;;;5010774;28;20021;-55
2021/10/08 07:10:51;;;;;;;48.28;9.60;;;;;;;;;;5013854;28;20053;-55
2021/10/08 07:13:16;;;;;;;48.10;9.52;;;;;;;;;;5022861;28;20111;-54
2021/10/08 07:15:41;;;;;;;53.58;10.18;;;;;;;;;;5010778;28;20038;-55
2021/10/08 07:18:09;;;;;;;101.47;12.32;;;;;;;;;;5016215;28;20503;-54
2021/10/08 07:20:35;;;;;;;228.57;12.70;;;;;;;;;;5009751;28;20034;-55
2021/10/08 07:23:00;;;;;;;82.97;11.65;;;;;;;;;;5023999;28;20112;-54
2021/10/08 07:25:26;;;;;;;305.25;14.18;;;;;;;;;;5014037;28;20090;-55
2021/10/08 07:27:51;;;;;;;135.18;14.73;;;;;;;;;;5014457;28;20030;-55
2021/10/08 07:30:16;;;;;;;139.73;13.75;;;;;;;;;;5013864;28;20100;-54
2021/10/08 07:32:42;;;;;;;260.88;14.60;;;;;;;;;;5010871;28;20148;-56
2021/10/08 07:35:07;;;;;;;36.50;11.77;;;;;;;;;;5017622;28;20036;-56
2021/10/08 07:37:33;;;;;;;135.68;11.80;;;;;;;;;;5020847;28;20322;-54
2021/10/08 07:39:58;;;;;;;103.45;11.13;;;;;;;;;;5015321;28;20121;-58
2021/10/08 07:42:23;;;;;;;131.63;12.73;;;;;;;;;;5008823;28;20030;-55
2021/10/08 07:44:48;;;;;;;139.77;12.45;;;;;;;;;;5015483;28;20030;-54
2021/10/08 07:47:14;;;;;;;159.02;13.88;;;;;;;;;;5011890;28;20068;-55
2021/10/08 07:49:39;;;;;;;234.85;13.10;;;;;;;;;;5034619;28;20029;-55
2021/10/08 07:52:05;;;;;;;195.30;12.25;;;;;;;;;;5024532;28;20040;-54
2021/10/08 07:54:30;;;;;;;159.18;12.18;;;;;;;;;;5014008;28;20036;-54
2021/10/08 07:56:55;;;;;;;52.00;10.90;;;;;;;;;;5006522;28;20053;-60
2021/10/08 07:59:20;;;;;;;236.85;12.70;;;;;;;;;;5014997;28;20052;-54
2021/10/08 08:01:46;;;;;;;64.90;11.88;;;;;;;;;;5014041;28;20080;-55
2021/10/08 08:04:12;;;;;;;57.00;11.40;;;;;;;;;;5021316;28;20030;-55
2021/10/08 08:06:37;;;;;;;41.15;11.43;;;;;;;;;;5016559;28;20164;-54
2021/10/08 08:09:02;;;;;;;50.65;12.27;;;;;;;;;;5008482;28;20095;-56
2021/10/08 08:11:27;;;;;;;44.85;11.52;;;;;;;;;;5011136;28;20128;-56
2021/10/08 08:13:53;;;;;;;30.90;11.30;;;;;;;;;;5013244;28;20033;-55
2021/10/08 08:16:18;;;;;;;30.58;10.40;;;;;;;;;;5008283;28;20045;-55
2021/10/08 08:18:43;;;;;;;62.58;9.63;;;;;;;;;;5015076;28;20041;-57
2021/10/08 08:21:08;;;;;;;30.73;9.63;;;;;;;;;;5018624;28;20057;-54
2021/10/08 08:23:34;;;;;;;24.10;9.88;;;;;;;;;;5015065;28;20093;-57
2021/10/08 08:25:59;;;;;;;19.13;8.23;;;;;;;;;;5009895;28;20125;-57
2021/10/08 08:28:24;;;;;;;21.38;8.90;;;;;;;;;;5007713;28;20052;-58
2021/10/08 08:30:49;;;;;;;33.08;9.70;;;;;;;;;;5023357;28;20044;-54
2021/10/08 08:33:15;;;;;;;14.75;8.50;;;;;;;;;;5019800;28;20025;-58
2021/10/08 08:35:40;;;;;;;16.42;8.27;;;;;;;;;;5013213;28;20038;-55
2021/10/08 08:38:05;;;;;;;22.90;9.35;;;;;;;;;;5015068;28;20038;-56
2021/10/08 08:40:34;;;;;;;18.00;8.20;;;;;;;;;;5011047;28;20279;-56
2021/10/08 08:42:59;;;;;;;25.30;8.10;;;;;;;;;;5014326;28;20025;-57
2021/10/08 08:45:25;;;;;;;14.15;8.52;;;;;;;;;;5013245;28;20555;-56
2021/10/08 08:48:00;;;;;;;19.20;8.52;;;;;;;;;;5017307;28;20022;-55
2021/10/08 08:50:26;;;;;;;35.22;9.25;;;;;;;;;;5014123;28;20488;-55
2021/10/08 08:52:51;;;;;;;48.28;8.95;;;;;;;;;;5008289;28;20061;-56
2021/10/08 08:55:16;;;;;;;18.52;9.23;;;;;;;;;;5010614;28;20021;-56
2021/10/08 08:57:43;;;;;;;62.85;9.23;;;;;;;;;;5009435;28;20052;-56
2021/10/08 09:00:09;;;;;;;143.82;10.18;;;;;;;;;;5022591;28;20064;-56
2021/10/08 09:02:35;;;;;;;46.50;8.95;;;;;;;;;;5016502;28;20025;-55
2021/10/08 09:05:00;;;;;;;24.02;9.85;;;;;;;;;;5019123;28;20040;-55
2021/10/08 09:07:33;;;;;;;22.48;10.73;;;;;;;;;;5015202;28;20033;-57
2021/10/08 09:10:10;;;;;;;17.88;9.52;;;;;;;;;;5017342;28;20159;-57
2021/10/08 09:12:36;;;;;;;24.52;10.00;;;;;;;;;;4987855;28;20081;-57
2021/10/08 09:15:01;;;;;;;22.33;9.73;;;;;;;;;;4990201;28;20049;-56
2021/10/08 09:17:27;;;;;;;27.92;9.98;;;;;;;;;;4995840;28;20030;-56
2021/10/08 09:19:56;;;;;;;20.50;9.50;;;;;;;;;;4988003;28;20618;-57
2021/10/08 09:22:28;;;;;;;17.07;9.47;;;;;;;;;;5002961;28;20034;-56
2021/10/08 09:24:53;;;;;;;21.45;10.07;;;;;;;;;;4987474;28;20030;-57
2021/10/08 09:27:19;;;;;;;18.20;9.88;;;;;;;;;;4996468;28;20464;-57
2021/10/08 09:29:52;;;;;;;23.63;10.00;;;;;;;;;;4993242;28;20108;-56
2021/10/08 09:32:18;;;;;;;16.95;9.75;;;;;;;;;;4991476;28;20033;-56
2021/10/08 09:34:43;;;;;;;19.80;9.63;;;;;;;;;;4996464;28;20083;-56
2021/10/08 09:37:10;;;;;;;21.30;9.95;;;;;;;;;;4990733;28;20376;-56
2021/10/08 09:39:37;;;;;;;21.95;10.27;;;;;;;;;;4992751;28;20473;-56
2021/10/08 09:42:02;;;;;;;24.27;10.32;;;;;;;;;;5004863;28;20089;-56
2021/10/08 09:44:28;;;;;;;24.30;10.38;;;;;;;;;;4992819;28;20052;-57
2021/10/08 09:47:09;;;;;;;19.63;9.98;;;;;;;;;;4984236;28;20038;-56
2021/10/08 09:49:35;;;;;;;17.63;9.20;;;;;;;;;;4997984;28;20029;-57
2021/10/08 09:52:17;;;;;;;18.25;9.27;;;;;;;;;;4999592;28;20042;-57
2021/10/08 09:55:01;;;;;;;18.00;9.23;;;;;;;;;;5003131;28;20072;-56
2021/10/08 09:57:26;;;;;;;14.18;9.15;;;;;;;;;;5001151;28;20041;-56
2021/10/08 09:59:52;;;;;;;15.75;9.10;;;;;;;;;;5026845;28;20031;-56
2021/10/08 10:02:17;;;;;;;14.57;9.05;;;;;;;;;;4989687;28;20121;-56
2021/10/08 10:04:46;;;;;;;14.35;8.25;;;;;;;;;;5003085;28;20057;-56
2021/10/08 10:07:15;;;;;;;13.57;8.48;;;;;;;;;;4992745;28;20051;-56
2021/10/08 10:09:40;;;;;;;18.48;9.85;;;;;;;;;;4993056;28;20018;-57
2021/10/08 10:12:06;;;;;;;24.00;11.82;;;;;;;;;;4996491;28;20416;-56
2021/10/08 10:14:32;;;;;;;13.35;8.57;;;;;;;;;;4990373;28;20022;-56
2021/10/08 10:16:57;;;;;;;31.55;11.75;;;;;;;;;;4994954;28;20038;-56
2021/10/08 10:19:23;;;;;;;14.30;9.20;;;;;;;;;;5010442;28;20055;-55
2021/10/08 10:21:48;;;;;;;21.05;10.40;;;;;;;;;;5001873;28;20481;-56
2021/10/08 10:24:13;;;;;;;17.23;10.52;;;;;;;;;;5013920;28;20026;-55
2021/10/08 10:26:38;;;;;;;17.75;9.75;;;;;;;;;;5005999;28;20073;-56
2021/10/08 10:29:04;;;;;;;24.83;10.23;;;;;;;;;;4998269;28;20030;-56
2021/10/08 10:31:34;;;;;;;21.48;10.40;;;;;;;;;;4998264;28;20034;-56
2021/10/08 10:34:01;;;;;;;19.90;10.68;;;;;;;;;;4992545;28;20034;-56
2021/10/08 10:36:27;;;;;;;17.83;9.18;;;;;;;;;;5005916;28;20038;-55
2021/10/08 10:39:11;;;;;;;12.05;8.93;;;;;;;;;;5006797;28;20187;-55
2021/10/08 10:41:36;;;;;;;20.30;9.90;;;;;;;;;;4994808;28;20065;-55
2021/10/08 10:44:39;;;;;;;17.92;8.98;;;;;;;;;;5001263;28;20037;-55
2021/10/08 10:47:14;;;;;;;18.35;8.93;;;;;;;;;;4996284;28;20057;-55
2021/10/08 10:49:49;;;;;;;16.90;9.13;;;;;;;;;;4992618;28;20073;-55
2021/10/08 10:52:15;;;;;;;18.10;8.50;;;;;;;;;;5008193;28;20034;-54
2021/10/08 10:54:49;;;;;;;19.10;9.15;;;;;;;;;;4994365;28;20399;-55
2021/10/08 10:57:30;;;;;;;19.13;8.77;;;;;;;;;;4993193;28;20225;-56
2021/10/08 11:00:13;;;;;;;15.02;8.63;;;;;;;;;;4993706;28;20053;-55
2021/10/08 11:02:38;;;;;;;15.55;9.10;;;;;;;;;;4996344;28;20069;-55
2021/10/08 11:05:12;;;;;;;12.90;9.25;;;;;;;;;;5003580;28;20073;-54
2021/10/08 11:07:37;;;;;;;14.52;9.73;;;;;;;;;;4999502;28;20033;-55
2021/10/08 11:10:02;;;;;;;16.00;9.20;;;;;;;;;;5004974;28;20530;-55
2021/10/08 11:12:33;;;;;;;15.77;9.23;;;;;;;;;;4996937;28;20504;-55
2021/10/08 11:17:45;;;;;;;13.75;8.35;;;;;;;;;;4997779;28;20073;-55
2021/10/08 11:20:26;;;;;;;19.65;8.68;;;;;;;;;;5000038;28;20072;-55
2021/10/08 11:22:52;;;;;;;15.35;9.23;;;;;;;;;;4991907;28;20030;-55
2021/10/08 11:25:17;;;;;;;18.83;9.30;;;;;;;;;;4994709;28;20037;-55
2021/10/08 11:27:45;;;;;;;25.30;8.73;;;;;;;;;;5003342;28;20028;-56
2021/10/08 11:30:10;;;;;;;15.63;8.07;;;;;;;;;;5003052;28;20026;-55
2021/10/08 11:32:35;;;;;;;12.63;6.10;;;;;;;;;;4996856;28;20092;-55
2021/10/08 11:35:01;;;;;;;10.45;5.78;;;;;;;;;;4994915;28;20030;-55
2021/10/08 11:37:28;;;;;;;8.63;5.53;;;;;;;;;;5000156;28;20026;-56
2021/10/08 11:39:54;;;;;;;10.52;6.72;;;;;;;;;;5002546;28;20037;-55
2021/10/08 11:42:21;;;;;;;10.40;7.13;;;;;;;;;;5001425;28;20455;-59
2021/10/08 11:52:30;;;;;;;20.00;7.60;;;;;;;;;;4999228;28;20045;-54
2021/10/08 11:55:04;;;;;;;12.85;7.78;;;;;;;;;;5001815;28;20156;-54
2021/10/08 11:57:29;;;;;;;11.98;7.63;;;;;;;;;;5000314;28;20183;-54
2021/10/08 11:59:55;;;;;;;11.48;7.40;;;;;;;;;;4998754;28;20489;-54
2021/10/08 12:02:21;;;;;;;11.90;6.85;;;;;;;;;;4995906;28;20029;-55
2021/10/08 12:04:59;;;;;;;11.85;7.38;;;;;;;;;;4998146;28;20091;-55
2021/10/08 12:07:25;;;;;;;7.80;6.45;;;;;;;;;;4998589;28;20627;-55
2021/10/08 12:10:09;;;;;;;11.25;6.78;;;;;;;;;;5002097;28;20494;-56
2021/10/08 12:12:34;;;;;;;8.90;6.68;;;;;;;;;;4999603;28;20062;-56
2021/10/08 12:14:59;;;;;;;10.57;6.72;;;;;;;;;;4995238;28;20025;-56
2021/10/08 12:17:25;;;;;;;10.85;7.00;;;;;;;;;;5013742;28;20042;-56
2021/10/08 12:19:51;;;;;;;11.63;7.88;;;;;;;;;;5013065;28;20056;-55
2021/10/08 12:22:20;;;;;;;9.98;6.97;;;;;;;;;;5001338;28;20117;-55
2021/10/08 12:24:46;;;;;;;8.93;6.32;;;;;;;;;;4999404;28;20030;-58
2021/10/08 12:27:11;;;;;;;12.80;7.45;;;;;;;;;;5000919;28;20384;-54
2021/10/08 12:29:40;;;;;;;10.60;6.75;;;;;;;;;;4998086;28;20041;-54
2021/10/08 12:32:08;;;;;;;11.18;6.35;;;;;;;;;;4994854;28;20128;-54
2021/10/08 12:34:41;;;;;;;10.45;5.82;;;;;;;;;;4996316;28;21634;-55
2021/10/08 12:37:10;;;;;;;18.23;6.90;;;;;;;;;;4997230;28;20042;-55
2021/10/08 12:39:39;;;;;;;8.50;6.40;;;;;;;;;;5007910;28;20073;-54
2021/10/08 12:42:15;;;;;;;10.90;6.30;;;;;;;;;;5002012;28;20037;-53
2021/10/08 12:44:47;;;;;;;8.65;6.05;;;;;;;;;;4996064;28;20583;-55
2021/10/08 12:47:14;;;;;;;10.30;6.30;;;;;;;;;;4994077;28;21159;-54
2021/10/08 12:49:49;;;;;;;11.60;7.30;;;;;;;;;;4993529;28;20038;-55
2021/10/08 12:52:14;;;;;;;6.88;5.35;;;;;;;;;;5013442;28;20125;-54
2021/10/08 12:54:40;;;;;;;8.98;5.28;;;;;;;;;;5010335;28;20121;-55
2021/10/08 12:57:12;;;;;;;9.32;5.60;;;;;;;;;;5010077;28;20137;-54
2021/10/08 12:59:47;;;;;;;9.88;5.43;;;;;;;;;;4993092;28;20030;-54
2021/10/08 13:02:14;;;;;;;12.50;5.68;;;;;;;;;;5016604;28;20048;-55
2021/10/08 13:04:41;;;;;;;9.85;5.60;;;;;;;;;;5018074;28;20027;-55
2021/10/08 13:07:13;;;;;;;9.57;5.38;;;;;;;;;;5017405;28;20041;-55
2021/10/08 13:09:40;;;;;;;9.07;5.03;;;;;;;;;;5012472;28;21808;-54
2021/10/08 13:12:05;;;;;;;8.57;4.90;;;;;;;;;;5016671;28;20080;-55
2021/10/08 13:14:31;;;;;;;8.75;5.30;;;;;;;;;;5018930;28;20116;-55
2021/10/08 13:16:56;;;;;;;11.00;5.15;;;;;;;;;;5012626;28;20029;-55
2021/10/08 13:19:31;;;;;;;14.63;5.70;;;;;;;;;;5012985;28;20052;-55
2021/10/08 13:21:57;;;;;;;12.68;5.75;;;;;;;;;;5011031;28;20103;-56
2021/10/08 13:24:22;;;;;;;13.82;5.90;;;;;;;;;;5015929;28;20037;-55
2021/10/08 13:26:47;;;;;;;12.52;5.60;;;;;;;;;;5006688;28;20040;-55
2021/10/08 13:29:13;;;;;;;11.65;5.80;;;;;;;;;;5017180;28;20504;-55
2021/10/08 13:31:39;;;;;;;9.80;5.75;;;;;;;;;;5016875;28;20037;-54
2021/10/08 13:34:04;;;;;;;8.88;5.20;;;;;;;;;;5015125;28;20057;-55
2021/10/08 13:36:29;;;;;;;14.65;5.72;;;;;;;;;;5013970;28;20815;-55
2021/10/08 13:38:55;;;;;;;12.32;5.85;;;;;;;;;;5014402;28;20378;-57
2021/10/08 13:41:20;;;;;;;7.50;5.40;;;;;;;;;;5018274;28;20033;-55
2021/10/08 13:43:45;;;;;;;8.20;5.32;;;;;;;;;;5005953;28;20045;-54
2021/10/08 13:46:10;;;;;;;10.23;5.97;;;;;;;;;;5017681;28;20065;-55
2021/10/08 13:48:36;;;;;;;9.48;5.47;;;;;;;;;;5008313;28;20726;-55
2021/10/08 13:51:01;;;;;;;10.85;6.00;;;;;;;;;;5012682;28;20087;-54
2021/10/08 13:53:26;;;;;;;9.95;6.40;;;;;;;;;;5012276;28;20026;-55
2021/10/08 13:55:51;;;;;;;13.23;6.55;;;;;;;;;;5028707;28;20041;-53
2021/10/08 13:58:16;;;;;;;10.25;5.70;;;;;;;;;;5013184;28;20041;-54
2021/10/08 14:00:50;;;;;;;10.18;6.60;;;;;;;;;;5012848;28;20091;-54
2021/10/08 14:10:51;;;;;;;12.13;7.28;;;;;;;;;;5014101;28;20069;-55
2021/10/08 14:13:16;;;;;;;13.07;7.70;;;;;;;;;;5030185;28;20153;-55
2021/10/08 14:15:42;;;;;;;11.32;8.00;;;;;;;;;;5007512;28;20033;-55
2021/10/08 14:18:07;;;;;;;12.38;7.75;;;;;;;;;;5011489;28;21736;-55
2021/10/08 14:20:32;;;;;;;13.23;7.70;;;;;;;;;;5012519;28;20551;-56
2021/10/08 14:22:57;;;;;;;11.38;8.20;;;;;;;;;;5009498;28;20021;-54
2021/10/08 14:25:23;;;;;;;12.80;7.65;;;;;;;;;;5009091;28;20034;-55
2021/10/08 14:27:48;;;;;;;10.82;7.88;;;;;;;;;;5021581;28;20040;-54
2021/10/08 14:30:14;;;;;;;23.20;8.45;;;;;;;;;;5011081;28;20391;-55
2021/10/08 14:32:40;;;;;;;13.00;8.40;;;;;;;;;;5014908;28;20120;-57
2021/10/08 14:35:05;;;;;;;12.65;7.82;;;;;;;;;;5011237;28;20207;-55